createdAt,value
2018-02-20T00:00:15.808Z,66.67
2018-02-20T00:00:56.359Z,66.67
2018-02-20T00:01:36.902Z,66.57
2018-02-20T00:02:17.481Z,67.14
2018-02-20T00:02:58.035Z,66.95
2018-02-20T00:03:38.612Z,66.95
2018-02-20T00:04:19.176Z,66.76
2018-02-20T00:04:59.707Z,66.95
2018-02-20T00:05:40.259Z,66.76
2018-02-20T00:06:20.818Z,66.86
2018-02-20T00:07:01.427Z,66.95
2018-02-20T00:07:41.978Z,66.86
2018-02-20T00:08:22.564Z,66.95
2018-02-20T00:09:03.130Z,67.05
2018-02-20T00:09:43.682Z,66.95
2018-02-20T00:10:24.244Z,67.05
2018-02-20T00:11:04.800Z,66.95
2018-02-20T00:11:45.355Z,66.95
2018-02-20T00:12:25.896Z,66.76
2018-02-20T00:13:06.480Z,66.92
2018-02-20T00:13:47.040Z,66.76
2018-02-20T00:14:27.700Z,67.01
2018-02-20T00:15:08.284Z,67.05
2018-02-20T00:15:48.869Z,67.11
2018-02-20T00:16:29.430Z,66.86
2018-02-20T00:17:09.983Z,67.11
2018-02-20T00:17:50.566Z,67.24
2018-02-20T00:18:31.113Z,66.73
2018-02-20T00:19:11.658Z,67.24
2018-02-20T00:19:52.206Z,67.39
2018-02-20T00:20:32.766Z,67.71
2018-02-20T00:21:13.309Z,67.49
2018-02-20T00:21:53.874Z,67.52
2018-02-20T00:22:34.464Z,67.52
2018-02-20T00:23:15.036Z,67.61
2018-02-20T00:23:55.593Z,67.33
2018-02-20T00:24:36.157Z,67.39
2018-02-20T00:25:16.772Z,67.52
2018-02-20T00:25:57.257Z,67.2
2018-02-20T00:26:37.814Z,67.2
2018-02-20T00:27:18.380Z,67.24
2018-02-20T00:27:58.936Z,67.3
2018-02-20T00:28:39.488Z,67.43
2018-02-20T00:29:20.005Z,67.58
2018-02-20T00:30:00.569Z,67.3
2018-02-20T00:30:41.131Z,67.33
2018-02-20T00:31:21.683Z,67.68
2018-02-20T00:32:02.233Z,67.77
2018-02-20T00:32:42.798Z,67.58
2018-02-20T00:33:23.329Z,67.77
2018-02-20T00:34:03.908Z,68.15
2018-02-20T00:34:44.461Z,68.24
2018-02-20T00:35:25.014Z,68.15
2018-02-20T00:36:05.561Z,68.05
2018-02-20T00:36:46.126Z,67.8
2018-02-20T00:37:26.704Z,67.58
2018-02-20T00:38:07.262Z,67.77
2018-02-20T00:38:47.814Z,67.96
2018-02-20T00:39:28.377Z,68.18
2018-02-20T00:40:08.945Z,68.08
2018-02-20T00:40:49.497Z,67.9
2018-02-20T00:41:30.038Z,67.49
2018-02-20T00:42:10.588Z,67.86
2018-02-20T00:42:51.156Z,67.68
2018-02-20T00:43:31.696Z,67.71
2018-02-20T00:44:12.266Z,67.77
2018-02-20T00:44:52.827Z,68.05
2018-02-20T00:45:33.381Z,68.33
2018-02-20T00:46:13.971Z,67.96
2018-02-20T00:46:54.512Z,68.24
2018-02-20T00:47:35.070Z,67.96
2018-02-20T00:48:15.615Z,68.52
2018-02-20T00:48:56.162Z,68.24
2018-02-20T00:49:36.715Z,68.43
2018-02-20T00:50:17.286Z,68.24
2018-02-20T00:50:57.825Z,68.33
2018-02-20T00:51:38.375Z,68.33
2018-02-20T00:52:18.948Z,68.33
2018-02-20T00:52:59.545Z,68.33
2018-02-20T00:53:40.137Z,68.05
2018-02-20T00:54:20.678Z,68.15
2018-02-20T00:55:01.229Z,68.43
2018-02-20T00:55:41.778Z,68.33
2018-02-20T00:56:22.338Z,68.43
2018-02-20T00:57:02.885Z,68.33
2018-02-20T00:57:43.428Z,68.33
2018-02-20T00:58:23.973Z,68.43
2018-02-20T00:59:04.528Z,68.52
2018-02-20T00:59:45.081Z,68.9
2018-02-20T01:00:25.632Z,68.9
2018-02-20T01:01:06.176Z,68.81
2018-02-20T01:01:46.729Z,68.81
2018-02-20T01:02:27.261Z,68.62
2018-02-20T01:03:07.877Z,69.28
2018-02-20T01:03:48.414Z,68.9
2018-02-20T01:04:28.965Z,69
2018-02-20T01:05:09.526Z,68.9
2018-02-20T01:05:50.057Z,68.81
2018-02-20T01:06:30.613Z,69.38
2018-02-20T01:07:11.173Z,69
2018-02-20T01:07:51.718Z,69.95
2018-02-20T01:08:32.271Z,69.95
2018-02-20T01:09:12.962Z,69.19
2018-02-20T01:09:53.533Z,69.66
2018-02-20T01:10:34.097Z,69.66
2018-02-20T01:11:14.656Z,69.76
2018-02-20T01:11:55.205Z,69.66
2018-02-20T01:12:35.766Z,69.66
2018-02-20T01:13:16.324Z,69.85
2018-02-20T01:13:56.890Z,69.85
2018-02-20T01:14:37.445Z,69.85
2018-02-20T01:15:17.974Z,69.76
2018-02-20T01:15:58.564Z,69.57
2018-02-20T01:16:39.126Z,69.66
2018-02-20T01:17:19.710Z,69.66
2018-02-20T01:18:00.289Z,69.47
2018-02-20T01:18:40.919Z,69.95
2018-02-20T01:19:21.461Z,69.85
2018-02-20T01:20:01.991Z,69.57
2018-02-20T01:20:42.596Z,69.85
2018-02-20T01:21:23.169Z,69.76
2018-02-20T01:22:03.685Z,69.85
2018-02-20T01:22:44.236Z,70.14
2018-02-20T01:23:24.801Z,69.76
2018-02-20T01:24:05.357Z,69.85
2018-02-20T01:24:45.953Z,69.76
2018-02-20T01:25:26.503Z,70.23
2018-02-20T01:26:07.089Z,70.32
2018-02-20T01:26:47.598Z,70.23
2018-02-20T01:27:28.170Z,70.23
2018-02-20T01:28:08.748Z,70.14
2018-02-20T01:28:49.287Z,70.04
2018-02-20T01:29:29.874Z,70.42
2018-02-20T01:30:10.448Z,70.61
2018-02-20T01:30:50.972Z,70.61
2018-02-20T01:31:31.541Z,70.32
2018-02-20T01:32:12.122Z,70.32
2018-02-20T01:32:52.676Z,70.61
2018-02-20T01:33:33.238Z,70.79
2018-02-20T01:34:13.783Z,70.79
2018-02-20T01:34:54.358Z,70.89
2018-02-20T01:35:34.915Z,70.7
2018-02-20T01:36:15.455Z,70.7
2018-02-20T01:36:56.021Z,70.79
2018-02-20T01:37:36.606Z,70.79
2018-02-20T01:38:17.155Z,70.51
2018-02-20T01:38:57.717Z,70.79
2018-02-20T01:39:38.305Z,70.7
2018-02-20T01:40:18.854Z,70.7
2018-02-20T01:40:59.392Z,70.7
2018-02-20T01:41:40.032Z,70.89
2018-02-20T01:42:20.590Z,70.89
2018-02-20T01:43:01.127Z,70.7
2018-02-20T01:43:41.693Z,70.89
2018-02-20T01:44:22.275Z,71.08
2018-02-20T01:45:02.822Z,71.17
2018-02-20T01:45:43.363Z,71.08
2018-02-20T01:46:23.902Z,71.08
2018-02-20T01:47:04.454Z,70.79
2018-02-20T01:47:44.985Z,70.89
2018-02-20T01:48:25.553Z,71.08
2018-02-20T01:49:06.105Z,70.98
2018-02-20T01:49:46.681Z,70.7
2018-02-20T01:50:27.224Z,71.17
2018-02-20T01:51:07.787Z,71.08
2018-02-20T01:51:48.333Z,70.98
2018-02-20T01:52:28.880Z,70.89
2018-02-20T01:53:09.444Z,70.98
2018-02-20T01:53:49.985Z,70.79
2018-02-20T01:54:30.547Z,70.98
2018-02-20T01:55:11.101Z,71.27
2018-02-20T01:55:51.643Z,71.08
2018-02-20T01:56:32.193Z,71.36
2018-02-20T01:57:12.761Z,71.08
2018-02-20T01:57:53.311Z,71.08
2018-02-20T01:58:33.850Z,71.17
2018-02-20T01:59:14.408Z,71.08
2018-02-20T01:59:54.956Z,71.17
2018-02-20T02:00:35.514Z,71.08
2018-02-20T02:01:16.045Z,71.36
2018-02-20T02:01:56.597Z,71.27
2018-02-20T02:02:37.173Z,71.46
2018-02-20T02:03:17.733Z,71.55
2018-02-20T02:03:58.276Z,71.36
2018-02-20T02:04:38.870Z,71.65
2018-02-20T02:05:19.461Z,71.36
2018-02-20T02:06:00.017Z,71.55
2018-02-20T02:06:40.561Z,71.55
2018-02-20T02:07:21.099Z,71.65
2018-02-20T02:08:01.662Z,71.27
2018-02-20T02:08:42.205Z,71.17
2018-02-20T02:09:22.768Z,71.27
2018-02-20T02:10:03.341Z,71.27
2018-02-20T02:10:43.834Z,71.36
2018-02-20T02:11:24.387Z,71.17
2018-02-20T02:12:04.934Z,71.08
2018-02-20T02:12:45.498Z,71.36
2018-02-20T02:13:26.065Z,71.17
2018-02-20T02:14:06.605Z,71.08
2018-02-20T02:14:47.156Z,71.17
2018-02-20T02:15:27.703Z,71.17
2018-02-20T02:16:08.269Z,71.65
2018-02-20T02:16:48.815Z,71.17
2018-02-20T02:17:29.385Z,71.36
2018-02-20T02:18:09.958Z,71.27
2018-02-20T02:18:50.497Z,71.55
2018-02-20T02:19:31.055Z,71.65
2018-02-20T02:20:11.599Z,71.65
2018-02-20T02:20:52.149Z,71.65
2018-02-20T02:21:32.742Z,71.65
2018-02-20T02:22:13.311Z,71.46
2018-02-20T02:22:53.853Z,71.65
2018-02-20T02:23:34.419Z,71.46
2018-02-20T02:24:14.980Z,71.65
2018-02-20T02:24:55.531Z,71.65
2018-02-20T02:25:36.084Z,71.55
2018-02-20T02:26:16.650Z,71.55
2018-02-20T02:26:57.204Z,71.46
2018-02-20T02:27:37.755Z,72.31
2018-02-20T02:28:18.295Z,72.22
2018-02-20T02:28:58.853Z,72.12
2018-02-20T02:29:39.388Z,71.55
2018-02-20T02:30:19.941Z,72.12
2018-02-20T02:31:00.497Z,72.03
2018-02-20T02:31:41.052Z,72.22
2018-02-20T02:32:21.615Z,72.22
2018-02-20T02:33:02.167Z,72.12
2018-02-20T02:33:42.728Z,71.74
2018-02-20T02:34:23.272Z,71.93
2018-02-20T02:35:03.836Z,71.74
2018-02-20T02:35:44.374Z,72.03
2018-02-20T02:36:24.927Z,72.6
2018-02-20T02:37:05.479Z,72.22
2018-02-20T02:37:46.026Z,71.93
2018-02-20T02:38:26.572Z,71.93
2018-02-20T02:39:07.107Z,72.03
2018-02-20T02:39:47.713Z,71.74
2018-02-20T02:40:28.284Z,71.93
2018-02-20T02:41:08.834Z,72.12
2018-02-20T02:41:49.404Z,72.31
2018-02-20T02:42:29.941Z,72.12
2018-02-20T02:43:10.493Z,71.93
2018-02-20T02:43:51.050Z,72.12
2018-02-20T02:44:31.627Z,72.12
2018-02-20T02:45:12.171Z,72.22
2018-02-20T02:45:52.734Z,72.12
2018-02-20T02:46:33.276Z,72.12
2018-02-20T02:47:13.843Z,72.03
2018-02-20T02:47:54.400Z,71.93
2018-02-20T02:48:34.943Z,72.31
2018-02-20T02:49:15.498Z,72.41
2018-02-20T02:49:56.082Z,72.88
2018-02-20T02:50:36.634Z,72.5
2018-02-20T02:51:17.223Z,72.22
2018-02-20T02:51:57.771Z,72.31
2018-02-20T02:52:38.364Z,72.6
2018-02-20T02:53:18.883Z,72.6
2018-02-20T02:53:59.448Z,72.03
2018-02-20T02:54:40.037Z,71.93
2018-02-20T02:55:20.567Z,71.84
2018-02-20T02:56:01.132Z,72.03
2018-02-20T02:56:41.676Z,71.93
2018-02-20T02:57:22.228Z,72.03
2018-02-20T02:58:02.783Z,71.93
2018-02-20T02:58:43.347Z,71.74
2018-02-20T02:59:23.893Z,71.93
2018-02-20T03:00:04.445Z,71.93
2018-02-20T03:00:44.996Z,71.93
2018-02-20T03:01:25.524Z,72.12
2018-02-20T03:02:06.090Z,72.41
2018-02-20T03:02:46.641Z,72.41
2018-02-20T03:03:27.211Z,72.6
2018-02-20T03:04:07.755Z,72.31
2018-02-20T03:04:48.313Z,72.5
2018-02-20T03:05:28.885Z,72.41
2018-02-20T03:06:09.420Z,72.6
2018-02-20T03:06:49.983Z,72.69
2018-02-20T03:07:30.504Z,72.6
2018-02-20T03:08:11.038Z,72.69
2018-02-20T03:08:51.599Z,72.69
2018-02-20T03:09:32.203Z,72.69
2018-02-20T03:10:12.760Z,72.88
2018-02-20T03:10:53.323Z,72.69
2018-02-20T03:11:33.859Z,72.69
2018-02-20T03:12:14.430Z,72.5
2018-02-20T03:12:54.980Z,72.5
2018-02-20T03:13:35.526Z,72.12
2018-02-20T03:14:16.076Z,72.6
2018-02-20T03:14:56.627Z,72.69
2018-02-20T03:15:37.178Z,72.6
2018-02-20T03:16:17.748Z,72.6
2018-02-20T03:16:58.300Z,72.69
2018-02-20T03:17:38.864Z,72.5
2018-02-20T03:18:19.459Z,72.88
2018-02-20T03:19:00.026Z,72.6
2018-02-20T03:19:40.575Z,72.69
2018-02-20T03:20:21.131Z,72.69
2018-02-20T03:21:01.677Z,72.69
2018-02-20T03:21:42.244Z,72.97
2018-02-20T03:22:22.790Z,73.07
2018-02-20T03:23:03.343Z,72.6
2018-02-20T03:23:43.884Z,72.88
2018-02-20T03:24:24.447Z,72.78
2018-02-20T03:25:05.011Z,72.69
2018-02-20T03:25:45.564Z,72.88
2018-02-20T03:26:26.107Z,72.88
2018-02-20T03:27:06.648Z,72.97
2018-02-20T03:27:47.204Z,72.97
2018-02-20T03:28:27.764Z,72.97
2018-02-20T03:29:08.313Z,73.16
2018-02-20T03:29:48.871Z,72.69
2018-02-20T03:30:29.425Z,73.16
2018-02-20T03:31:09.973Z,73.07
2018-02-20T03:31:50.518Z,73.16
2018-02-20T03:32:31.066Z,73.26
2018-02-20T03:33:11.605Z,72.97
2018-02-20T03:33:52.152Z,72.94
2018-02-20T03:34:32.727Z,73.07
2018-02-20T03:35:13.341Z,73.6
2018-02-20T03:35:53.845Z,73.45
2018-02-20T03:36:34.549Z,73.45
2018-02-20T03:37:15.105Z,73.35
2018-02-20T03:37:55.646Z,73.35
2018-02-20T03:38:36.210Z,73.45
2018-02-20T03:39:16.753Z,73.45
2018-02-20T03:39:57.307Z,73.35
2018-02-20T03:40:37.865Z,73.16
2018-02-20T03:41:18.416Z,73.07
2018-02-20T03:41:58.978Z,73.26
2018-02-20T03:42:39.562Z,72.97
2018-02-20T03:43:20.115Z,72.97
2018-02-20T03:44:00.685Z,73.07
2018-02-20T03:44:41.245Z,73.16
2018-02-20T03:45:21.779Z,73.07
2018-02-20T03:46:02.325Z,72.88
2018-02-20T03:46:42.883Z,72.97
2018-02-20T03:47:23.442Z,72.78
2018-02-20T03:48:04.040Z,72.88
2018-02-20T03:48:44.604Z,72.88
2018-02-20T03:49:25.357Z,72.78
2018-02-20T03:50:05.909Z,73.16
2018-02-20T03:50:46.451Z,73.26
2018-02-20T03:51:27.025Z,73.16
2018-02-20T03:52:07.566Z,73.07
2018-02-20T03:52:48.322Z,73.45
2018-02-20T03:53:28.666Z,73.54
2018-02-20T03:54:09.251Z,73.45
2018-02-20T03:54:49.789Z,73.35
2018-02-20T03:55:30.344Z,73.45
2018-02-20T03:56:10.904Z,73.07
2018-02-20T03:56:51.509Z,72.97
2018-02-20T03:57:32.071Z,73.35
2018-02-20T03:58:12.613Z,73.45
2018-02-20T03:58:53.201Z,73.45
2018-02-20T03:59:33.791Z,73.45
2018-02-20T04:00:14.358Z,73.26
2018-02-20T04:00:54.905Z,73.35
2018-02-20T04:01:35.490Z,73.16
2018-02-20T04:02:16.119Z,73.13
2018-02-20T04:02:56.722Z,73.45
2018-02-20T04:03:37.649Z,73.26
2018-02-20T04:04:18.191Z,73.16
2018-02-20T04:04:58.747Z,73.16
2018-02-20T04:05:39.296Z,73.64
2018-02-20T04:06:19.953Z,73.16
2018-02-20T04:07:00.597Z,73.35
2018-02-20T04:07:41.116Z,73.64
2018-02-20T04:08:21.674Z,73.35
2018-02-20T04:09:02.214Z,73.45
2018-02-20T04:09:42.775Z,73.45
2018-02-20T04:10:23.316Z,73.26
2018-02-20T04:11:03.913Z,73.54
2018-02-20T04:11:44.699Z,73.73
2018-02-20T04:12:25.261Z,73.64
2018-02-20T04:13:06.009Z,73.64
2018-02-20T04:13:46.801Z,73.64
2018-02-20T04:14:27.389Z,73.5
2018-02-20T04:15:07.943Z,73.45
2018-02-20T04:15:48.478Z,73.79
2018-02-20T04:16:29.034Z,73.83
2018-02-20T04:17:09.714Z,73.83
2018-02-20T04:17:50.289Z,74.21
2018-02-20T04:18:30.801Z,73.79
2018-02-20T04:19:11.362Z,74.02
2018-02-20T04:19:51.955Z,73.79
2018-02-20T04:20:32.520Z,73.32
2018-02-20T04:21:13.069Z,73.98
2018-02-20T04:21:53.610Z,73.35
2018-02-20T04:22:34.174Z,73.6
2018-02-20T04:23:14.721Z,73.79
2018-02-20T04:23:55.264Z,73.79
2018-02-20T04:24:35.824Z,74.07
2018-02-20T04:25:16.389Z,73.79
2018-02-20T04:25:56.941Z,74.17
2018-02-20T04:26:37.492Z,73.79
2018-02-20T04:27:18.052Z,73.98
2018-02-20T04:27:58.607Z,73.79
2018-02-20T04:28:39.269Z,73.88
2018-02-20T04:29:19.745Z,73.69
2018-02-20T04:30:00.275Z,74.26
2018-02-20T04:30:40.997Z,74.36
2018-02-20T04:31:21.568Z,74.26
2018-02-20T04:32:02.047Z,74.55
2018-02-20T04:32:42.592Z,74.36
2018-02-20T04:33:23.257Z,74.45
2018-02-20T04:34:03.940Z,74.74
2018-02-20T04:34:44.485Z,74.36
2018-02-20T04:35:25.040Z,74.45
2018-02-20T04:36:05.579Z,74.26
2018-02-20T04:36:46.131Z,74.45
2018-02-20T04:37:26.672Z,74.26
2018-02-20T04:38:07.225Z,74.45
2018-02-20T04:38:47.796Z,74.17
2018-02-20T04:39:28.380Z,74.26
2018-02-20T04:40:09.452Z,74.36
2018-02-20T04:40:50.466Z,74.36
2018-02-20T04:41:31.592Z,74.45
2018-02-20T04:42:12.744Z,74.45
2018-02-20T04:42:53.668Z,74.26
2018-02-20T04:43:34.413Z,74.45
2018-02-20T04:44:14.970Z,74.26
2018-02-20T04:44:55.512Z,74.74
2018-02-20T04:45:36.053Z,74.83
2018-02-20T04:46:16.629Z,74.26
2018-02-20T04:46:57.191Z,74.45
2018-02-20T04:47:37.772Z,74.74
2018-02-20T04:48:18.288Z,74.45
2018-02-20T04:48:58.832Z,74.26
2018-02-20T04:49:39.388Z,74.26
2018-02-20T04:50:19.930Z,74.36
2018-02-20T04:51:00.463Z,74.36
2018-02-20T04:51:41.013Z,74.26
2018-02-20T04:52:21.579Z,74.45
2018-02-20T04:53:02.184Z,74.45
2018-02-20T04:53:42.785Z,74.55
2018-02-20T04:54:23.359Z,74.83
2018-02-20T04:55:03.925Z,74.64
2018-02-20T04:55:44.519Z,74.83
2018-02-20T04:56:25.053Z,74.74
2018-02-20T04:57:05.638Z,74.74
2018-02-20T04:57:46.238Z,74.55
2018-02-20T04:58:26.852Z,74.64
2018-02-20T04:59:07.408Z,74.64
2018-02-20T04:59:47.954Z,74.64
2018-02-20T05:00:28.524Z,74.64
2018-02-20T05:01:09.098Z,74.64
2018-02-20T05:01:49.713Z,74.64
2018-02-20T05:02:30.231Z,74.74
2018-02-20T05:03:10.799Z,74.64
2018-02-20T05:03:51.354Z,74.74
2018-02-20T05:04:31.938Z,74.64
2018-02-20T05:05:12.504Z,75.02
2018-02-20T05:05:53.061Z,74.74
2018-02-20T05:06:33.617Z,75.02
2018-02-20T05:07:14.178Z,74.93
2018-02-20T05:07:54.736Z,74.45
2018-02-20T05:08:35.297Z,74.74
2018-02-20T05:09:15.847Z,74.93
2018-02-20T05:09:56.414Z,74.93
2018-02-20T05:10:36.961Z,74.93
2018-02-20T05:11:17.506Z,74.93
2018-02-20T05:11:58.055Z,74.83
2018-02-20T05:12:38.617Z,74.93
2018-02-20T05:13:19.186Z,74.64
2018-02-20T05:13:59.731Z,74.74
2018-02-20T05:14:40.302Z,74.64
2018-02-20T05:15:20.827Z,74.74
2018-02-20T05:16:01.419Z,74.83
2018-02-20T05:16:41.975Z,74.83
2018-02-20T05:17:22.538Z,75.59
2018-02-20T05:18:03.084Z,75.4
2018-02-20T05:18:43.657Z,75.4
2018-02-20T05:19:24.221Z,75.31
2018-02-20T05:20:04.762Z,75.12
2018-02-20T05:20:45.306Z,75.02
2018-02-20T05:21:25.864Z,74.74
2018-02-20T05:22:06.412Z,74.83
2018-02-20T05:22:46.975Z,74.74
2018-02-20T05:23:27.521Z,74.83
2018-02-20T05:24:08.075Z,75.59
2018-02-20T05:24:48.628Z,75.31
2018-02-20T05:25:29.196Z,75.4
2018-02-20T05:26:09.764Z,75.49
2018-02-20T05:26:50.304Z,75.21
2018-02-20T05:27:30.851Z,75.12
2018-02-20T05:28:11.428Z,74.74
2018-02-20T05:28:51.965Z,75.02
2018-02-20T05:29:32.513Z,75.02
2018-02-20T05:30:13.065Z,75.02
2018-02-20T05:30:53.616Z,75.31
2018-02-20T05:31:34.155Z,74.83
2018-02-20T05:32:14.729Z,74.45
2018-02-20T05:32:55.261Z,74.93
2018-02-20T05:33:35.817Z,74.64
2018-02-20T05:34:16.367Z,74.83
2018-02-20T05:34:56.975Z,75.49
2018-02-20T05:35:37.659Z,75.49
2018-02-20T05:36:18.211Z,75.12
2018-02-20T05:36:58.757Z,75.12
2018-02-20T05:37:39.326Z,75.49
2018-02-20T05:38:19.875Z,75.12
2018-02-20T05:39:00.448Z,75.12
2018-02-20T05:39:41.055Z,75.4
2018-02-20T05:40:21.609Z,75.31
2018-02-20T05:41:02.167Z,75.4
2018-02-20T05:41:42.766Z,75.21
2018-02-20T05:42:23.335Z,75.4
2018-02-20T05:43:03.902Z,75.4
2018-02-20T05:43:44.527Z,75.49
2018-02-20T05:44:25.107Z,75.4
2018-02-20T05:45:05.650Z,75.31
2018-02-20T05:45:46.201Z,75.4
2018-02-20T05:46:26.765Z,75.31
2018-02-20T05:47:07.325Z,75.31
2018-02-20T05:47:47.872Z,75.12
2018-02-20T05:48:28.412Z,74.74
2018-02-20T05:49:08.976Z,74.74
2018-02-20T05:49:49.535Z,75.02
2018-02-20T05:50:30.076Z,75.59
2018-02-20T05:51:10.632Z,75.59
2018-02-20T05:51:51.182Z,75.4
2018-02-20T05:52:31.751Z,75.4
2018-02-20T05:53:12.290Z,75.31
2018-02-20T05:53:52.836Z,74.83
2018-02-20T05:54:33.390Z,75.59
2018-02-20T05:55:13.943Z,75.49
2018-02-20T05:55:54.484Z,75.31
2018-02-20T05:56:35.039Z,75.31
2018-02-20T05:57:15.616Z,75.4
2018-02-20T05:57:56.201Z,75.49
2018-02-20T05:58:36.833Z,75.49
2018-02-20T05:59:17.444Z,75.4
2018-02-20T05:59:58.000Z,75.12
2018-02-20T06:00:38.554Z,75.4
2018-02-20T06:01:19.104Z,75.31
2018-02-20T06:01:59.764Z,75.31
2018-02-20T06:02:40.314Z,75.31
2018-02-20T06:03:20.872Z,74.93
2018-02-20T06:04:01.448Z,74.74
2018-02-20T06:04:42.001Z,75.02
2018-02-20T06:05:22.604Z,74.83
2018-02-20T06:06:03.168Z,75.59
2018-02-20T06:06:43.727Z,74.83
2018-02-20T06:07:24.273Z,74.64
2018-02-20T06:08:04.852Z,75.68
2018-02-20T06:08:45.408Z,75.49
2018-02-20T06:09:25.958Z,75.49
2018-02-20T06:10:06.501Z,75.12
2018-02-20T06:10:47.050Z,75.31
2018-02-20T06:11:27.618Z,75.12
2018-02-20T06:12:08.174Z,75.12
2018-02-20T06:12:48.730Z,75.4
2018-02-20T06:13:29.297Z,75.4
2018-02-20T06:14:09.852Z,75.31
2018-02-20T06:14:50.414Z,75.49
2018-02-20T06:15:30.957Z,75.4
2018-02-20T06:16:11.534Z,75.21
2018-02-20T06:16:52.133Z,75.87
2018-02-20T06:17:32.638Z,75.87
2018-02-20T06:18:13.191Z,75.78
2018-02-20T06:18:53.745Z,75.49
2018-02-20T06:19:34.347Z,75.59
2018-02-20T06:20:14.888Z,75.49
2018-02-20T06:21:00.328Z,76.25
2018-02-20T06:21:40.877Z,75.68
2018-02-20T06:22:21.421Z,75.59
2018-02-20T06:23:01.971Z,75.59
2018-02-20T06:23:42.520Z,75.68
2018-02-20T06:24:23.120Z,75.68
2018-02-20T06:25:03.664Z,75.87
2018-02-20T06:25:44.208Z,75.49
2018-02-20T06:26:24.774Z,75.49
2018-02-20T06:27:05.333Z,75.68
2018-02-20T06:27:45.890Z,75.59
2018-02-20T06:28:26.436Z,75.59
2018-02-20T06:29:07.068Z,75.4
2018-02-20T06:29:47.606Z,75.59
2018-02-20T06:30:28.158Z,75.59
2018-02-20T06:31:08.703Z,75.31
2018-02-20T06:31:49.277Z,75.78
2018-02-20T06:32:29.870Z,75.68
2018-02-20T06:33:10.408Z,75.78
2018-02-20T06:33:50.951Z,75.87
2018-02-20T06:34:31.505Z,75.78
2018-02-20T06:35:12.072Z,75.4
2018-02-20T06:35:52.630Z,75.59
2018-02-20T06:36:33.178Z,75.4
2018-02-20T06:37:13.750Z,75.59
2018-02-20T06:37:54.312Z,75.49
2018-02-20T06:38:34.848Z,75.59
2018-02-20T06:39:15.567Z,75.68
2018-02-20T06:39:56.136Z,75.49
2018-02-20T06:40:36.688Z,75.49
2018-02-20T06:41:17.250Z,75.59
2018-02-20T06:41:57.814Z,75.59
2018-02-20T06:42:38.373Z,75.49
2018-02-20T06:43:18.941Z,75.87
2018-02-20T06:43:59.505Z,76.25
2018-02-20T06:44:40.052Z,76.06
2018-02-20T06:45:20.612Z,76.15
2018-02-20T06:46:01.156Z,76.06
2018-02-20T06:46:41.701Z,75.96
2018-02-20T06:47:22.254Z,76.15
2018-02-20T06:48:02.807Z,76.34
2018-02-20T06:48:43.362Z,76.15
2018-02-20T06:49:23.915Z,76.34
2018-02-20T06:50:04.453Z,75.78
2018-02-20T06:50:45.018Z,75.96
2018-02-20T06:51:25.612Z,75.87
2018-02-20T06:52:06.114Z,75.87
2018-02-20T06:52:46.672Z,75.87
2018-02-20T06:53:27.229Z,76.06
2018-02-20T06:54:07.815Z,75.87
2018-02-20T06:54:48.381Z,75.78
2018-02-20T06:55:28.938Z,76.06
2018-02-20T06:56:09.514Z,75.87
2018-02-20T06:56:50.064Z,76.25
2018-02-20T06:57:30.622Z,76.06
2018-02-20T06:58:11.212Z,76.44
2018-02-20T06:58:51.750Z,76.06
2018-02-20T06:59:32.299Z,76.06
2018-02-20T07:00:12.862Z,76.15
2018-02-20T07:00:53.424Z,76.44
2018-02-20T07:01:33.983Z,75.87
2018-02-20T07:02:14.543Z,75.78
2018-02-20T07:02:55.131Z,75.78
2018-02-20T07:03:35.659Z,75.96
2018-02-20T07:04:16.207Z,75.87
2018-02-20T07:04:56.763Z,76.15
2018-02-20T07:05:37.361Z,76.06
2018-02-20T07:06:17.925Z,75.96
2018-02-20T07:06:58.480Z,76.15
2018-02-20T07:07:39.063Z,76.15
2018-02-20T07:08:19.626Z,75.87
2018-02-20T07:09:00.232Z,75.87
2018-02-20T07:09:40.779Z,75.96
2018-02-20T07:10:21.338Z,76.06
2018-02-20T07:11:01.887Z,75.96
2018-02-20T07:11:42.430Z,75.96
2018-02-20T07:12:23.005Z,75.96
2018-02-20T07:13:03.633Z,76.06
2018-02-20T07:13:44.138Z,75.87
2018-02-20T07:14:24.693Z,75.96
2018-02-20T07:15:05.266Z,75.87
2018-02-20T07:15:45.814Z,75.87
2018-02-20T07:16:26.363Z,76.25
2018-02-20T07:17:06.929Z,76.15
2018-02-20T07:17:47.503Z,76.25
2018-02-20T07:18:28.068Z,75.87
2018-02-20T07:19:08.646Z,75.49
2018-02-20T07:19:49.206Z,75.49
2018-02-20T07:20:29.779Z,75.68
2018-02-20T07:21:10.355Z,75.59
2018-02-20T07:21:50.932Z,76.15
2018-02-20T07:22:31.483Z,76.15
2018-02-20T07:23:12.113Z,76.15
2018-02-20T07:23:52.608Z,75.49
2018-02-20T07:24:33.195Z,75.78
2018-02-20T07:25:13.761Z,75.68
2018-02-20T07:25:54.369Z,75.87
2018-02-20T07:26:35.016Z,75.78
2018-02-20T07:27:15.571Z,75.59
2018-02-20T07:27:56.152Z,75.49
2018-02-20T07:28:36.709Z,75.31
2018-02-20T07:29:17.275Z,75.4
2018-02-20T07:29:57.831Z,75.31
2018-02-20T07:30:38.472Z,75.68
2018-02-20T07:31:19.025Z,75.59
2018-02-20T07:31:59.634Z,75.78
2018-02-20T07:32:40.398Z,75.4
2018-02-20T07:33:21.025Z,75.31
2018-02-20T07:34:01.523Z,75.31
2018-02-20T07:34:42.073Z,75.68
2018-02-20T07:35:22.627Z,75.49
2018-02-20T07:36:03.181Z,75.31
2018-02-20T07:36:43.749Z,75.78
2018-02-20T07:37:24.291Z,75.31
2018-02-20T07:38:04.840Z,75.59
2018-02-20T07:38:45.374Z,75.4
2018-02-20T07:39:25.926Z,75.12
2018-02-20T07:40:06.476Z,75.31
2018-02-20T07:40:47.368Z,75.31
2018-02-20T07:41:28.299Z,74.93
2018-02-20T07:42:08.847Z,75.21
2018-02-20T07:42:49.857Z,74.36
2018-02-20T07:43:30.440Z,74.83
2018-02-20T07:44:11.039Z,74.55
2018-02-20T07:44:51.608Z,74.26
2018-02-20T07:45:32.140Z,74.45
2018-02-20T07:46:12.726Z,74.45
2018-02-20T07:46:53.333Z,73.98
2018-02-20T07:47:33.885Z,74.26
2018-02-20T07:48:14.426Z,74.26
2018-02-20T07:48:54.983Z,74.26
2018-02-20T07:49:35.511Z,74.17
2018-02-20T07:50:16.080Z,74.26
2018-02-20T07:50:56.633Z,74.36
2018-02-20T07:51:37.177Z,74.26
2018-02-20T07:52:17.737Z,74.64
2018-02-20T07:52:58.294Z,74.45
2018-02-20T07:53:38.882Z,74.64
2018-02-20T07:54:19.562Z,74.45
2018-02-20T07:55:00.805Z,74.74
2018-02-20T07:55:42.052Z,74.64
2018-02-20T07:56:23.030Z,74.83
2018-02-20T07:57:03.649Z,74.74
2018-02-20T07:57:44.382Z,74.64
2018-02-20T07:58:25.367Z,74.64
2018-02-20T07:59:06.370Z,74.26
2018-02-20T07:59:47.570Z,74.17
2018-02-20T08:00:28.511Z,74.36
2018-02-20T08:01:09.149Z,74.45
2018-02-20T08:01:49.700Z,74.17
2018-02-20T08:02:30.316Z,74.36
2018-02-20T08:03:11.165Z,73.88
2018-02-20T08:03:52.322Z,74.17
2018-02-20T08:04:33.716Z,74.17
2018-02-20T08:05:14.854Z,74.36
2018-02-20T08:05:55.411Z,74.07
2018-02-20T08:06:35.955Z,74.17
2018-02-20T08:07:16.497Z,74.45
2018-02-20T08:07:57.056Z,74.26
2018-02-20T08:08:37.605Z,74.26
2018-02-20T08:09:18.307Z,74.17
2018-02-20T08:09:59.259Z,74.26
2018-02-20T08:10:40.410Z,74.26
2018-02-20T08:11:21.233Z,74.26
2018-02-20T08:12:01.789Z,74.07
2018-02-20T08:12:42.542Z,73.79
2018-02-20T08:13:23.155Z,73.79
2018-02-20T08:14:03.706Z,73.5
2018-02-20T08:14:44.574Z,73.45
2018-02-20T08:15:25.606Z,73.41
2018-02-20T08:16:06.834Z,74.11
2018-02-20T08:16:47.867Z,73.83
2018-02-20T08:17:29.497Z,73.26
2018-02-20T08:18:10.319Z,73.35
2018-02-20T08:18:52.442Z,72.92
2018-02-20T08:19:33.870Z,72.16
2018-02-20T08:20:14.468Z,71.78
2018-02-20T08:20:55.046Z,71.31
2018-02-20T08:21:35.646Z,70.11
2018-02-20T08:22:16.203Z,69.17
2018-02-20T08:22:56.753Z,67.46
2018-02-20T08:23:37.312Z,66.99
2018-02-20T08:24:17.930Z,65.84
2018-02-20T08:24:58.622Z,65.59
2018-02-20T08:25:39.186Z,65.5
2018-02-20T08:26:19.741Z,64.74
2018-02-20T08:27:00.324Z,63.98
2018-02-20T08:27:40.873Z,64.17
2018-02-20T08:28:21.442Z,64.36
2018-02-20T08:29:02.319Z,63.82
2018-02-20T08:29:42.936Z,63.26
2018-02-20T08:30:23.428Z,62.59
2018-02-20T08:31:03.994Z,61.93
2018-02-20T08:31:44.786Z,61.65
2018-02-20T08:32:25.354Z,61.08
2018-02-20T08:33:06.244Z,60.53
2018-02-20T08:33:47.019Z,60.06
2018-02-20T08:34:27.562Z,59.4
2018-02-20T08:35:08.186Z,58.83
2018-02-20T08:35:48.738Z,58.83
2018-02-20T08:36:29.303Z,59.02
2018-02-20T08:37:10.234Z,58.64
2018-02-20T08:37:50.780Z,58.26
2018-02-20T08:38:31.348Z,57.79
2018-02-20T08:39:12.676Z,57.88
2018-02-20T08:39:53.269Z,58.45
2018-02-20T08:40:33.816Z,57.98
2018-02-20T08:41:14.374Z,57.5
2018-02-20T08:41:55.000Z,57.4
2018-02-20T08:42:35.769Z,57.4
2018-02-20T08:43:16.372Z,57.21
2018-02-20T08:43:56.910Z,57.69